Time;durP1;ratioP1;P1;durP2;ratioP2;P2;SDS_P1;SDS_P2;PMS_P1;PMS_P2;Temp;Humidity;BMP_temperature;BMP_pressure;BME280_temperature;BME280_humidity;BME280_pressure;Samples;Min_cycle;Max_cycle;Signal;HPM_P1;HPM_P2
2023/03/01 05:30:47;;;;;;;20.40;10.18;;;1.50;72.20;;;;;;6101772;23;20032;-80
2023/03/01 05:33:24;;;;;;;19.90;11.40;;;1.50;72.10;;;;;;6126051;23;20026;-80
2023/03/01 05:35:51;;;;;;;21.48;11.73;;;1.50;72.00;;;;;;6101938;23;20150;-81
2023/03/01 05:38:17;;;;;;;17.55;10.43;;;1.40;72.00;;;;;;6102705;23;20013;-81
2023/03/01 05:40:45;;;;;;;11.57;10.10;;;1.40;72.20;;;;;;6128694;23;20049;-79
2023/03/01 05:43:13;;;;;;;24.63;12.98;;;1.30;72.40;;;;;;6102926;23;20010;-78
2023/03/01 05:45:40;;;;;;;17.55;11.50;;;1.30;72.20;;;;;;6128663;23;20033;-80
2023/03/01 05:48:07;;;;;;;19.00;10.63;;;1.40;72.00;;;;;;6102722;23;20413;-79
2023/03/01 05:50:39;;;;;;;20.08;12.45;;;1.40;71.70;;;;;;6128303;23;20077;-83
2023/03/01 05:53:07;;;;;;;26.10;13.98;;;1.40;71.60;;;;;;6102755;23;20006;-77
2023/03/01 05:55:34;;;;;;;18.70;12.93;;;1.50;71.60;;;;;;6102492;23;20006;-77
2023/03/01 05:58:05;;;;;;;20.10;13.50;;;1.40;71.80;;;;;;6129410;23;19998;-83
2023/03/01 06:00:31;;;;;;;19.70;12.70;;;1.40;72.10;;;;;;6102245;23;20013;-81
2023/03/01 06:02:58;;;;;;;27.40;14.52;;;1.40;72.00;;;;;;6127162;23;20005;-85
2023/03/01 06:05:25;;;;;;;20.83;12.40;;;1.50;71.80;;;;;;6128628;23;20006;-80
2023/03/01 06:07:52;;;;;;;25.17;14.63;;;1.50;71.50;;;;;;6129061;23;20506;-81
2023/03/01 06:10:19;;;;;;;22.00;12.35;;;1.50;71.20;;;;;;6128447;23;20037;-80
2023/03/01 06:12:45;;;;;;;18.55;12.65;;;1.50;71.20;;;;;;6128996;23;20004;-79
2023/03/01 06:15:14;;;;;;;19.05;12.20;;;1.50;71.40;;;;;;6130462;23;19998;-75
2023/03/01 06:17:42;;;;;;;21.23;11.50;;;1.60;71.00;;;;;;6103692;23;20434;-84
2023/03/01 06:20:19;;;;;;;22.05;12.40;;;1.60;71.00;;;;;;6104722;23;20017;-84
2023/03/01 06:22:46;;;;;;;22.55;11.27;;;1.60;70.70;;;;;;6128829;23;20077;-85
2023/03/01 06:25:14;;;;;;;24.42;12.63;;;1.60;70.80;;;;;;6130429;23;20029;-84
2023/03/01 06:27:40;;;;;;;20.02;12.98;;;1.60;70.70;;;;;;6128499;23;20006;-85
2023/03/01 06:30:10;;;;;;;18.58;12.68;;;1.50;70.70;;;;;;6129816;23;20322;-88
2023/03/01 06:32:36;;;;;;;21.52;13.40;;;1.50;70.50;;;;;;6132976;23;20045;-89
2023/03/01 06:35:03;;;;;;;21.08;10.73;;;1.50;70.60;;;;;;6130017;23;20517;-86
2023/03/01 06:37:29;;;;;;;21.83;12.77;;;1.50;70.60;;;;;;6132804;23;20434;-88
2023/03/01 06:39:54;;;;;;;19.92;12.02;;;1.40;70.80;;;;;;6105055;23;20033;-91
2023/03/01 06:42:20;;;;;;;18.90;12.32;;;1.30;71.00;;;;;;6135106;23;20037;-91
2023/03/01 06:44:46;;;;;;;23.20;13.45;;;1.30;71.00;;;;;;6131273;23;20091;-91
2023/03/01 06:47:14;;;;;;;23.08;13.88;;;1.30;71.20;;;;;;6131963;23;20009;-91
2023/03/01 06:49:39;;;;;;;18.83;11.73;;;1.30;71.10;;;;;;6133953;23;20013;-92
2023/03/01 06:52:05;;;;;;;23.63;12.40;;;1.20;71.20;;;;;;6130993;23;20077;-85
2023/03/01 06:54:30;;;;;;;20.17;12.52;;;1.20;71.20;;;;;;6130564;23;20081;-88
2023/03/01 06:56:56;;;;;;;21.20;14.40;;;1.20;71.20;;;;;;6104042;23;20109;-91
2023/03/01 06:59:21;;;;;;;17.67;11.88;;;1.10;71.50;;;;;;6131586;23;20006;-88
2023/03/01 07:01:47;;;;;;;20.45;13.00;;;1.20;71.30;;;;;;6103399;23;20010;-87
2023/03/01 07:04:13;;;;;;;22.80;13.40;;;1.20;71.30;;;;;;6129139;23;20066;-87
2023/03/01 07:06:39;;;;;;;20.67;12.15;;;1.10;71.20;;;;;;6129018;23;20508;-89
2023/03/01 07:09:05;;;;;;;19.77;11.98;;;1.20;70.80;;;;;;6102907;23;20010;-88
2023/03/01 07:11:31;;;;;;;19.70;11.48;;;1.30;70.70;;;;;;6129178;23;20006;-88
2023/03/01 07:13:58;;;;;;;15.55;9.50;;;1.30;70.70;;;;;;6102695;23;20056;-87
2023/03/01 07:16:23;;;;;;;22.13;14.75;;;1.30;70.40;;;;;;6129057;23;20383;-88
2023/03/01 07:18:49;;;;;;;19.88;10.65;;;1.20;70.40;;;;;;6128794;23;20013;-88
2023/03/01 07:21:16;;;;;;;23.48;14.05;;;1.20;70.60;;;;;;6103233;23;20093;-87
2023/03/01 07:23:42;;;;;;;19.10;12.85;;;1.30;70.30;;;;;;6128825;23;20456;-86
2023/03/01 07:26:07;;;;;;;22.73;13.43;;;1.30;70.20;;;;;;6129157;23;20009;-88
2023/03/01 07:28:38;;;;;;;23.50;14.93;;;1.30;70.40;;;;;;6102579;23;20105;-88
2023/03/01 07:31:04;;;;;;;17.05;12.15;;;1.30;70.30;;;;;;6128472;23;20021;-87
2023/03/01 07:33:30;;;;;;;19.35;10.25;;;1.30;70.10;;;;;;6128981;23;19998;-88
2023/03/01 07:36:04;;;;;;;16.75;11.20;;;1.40;69.90;;;;;;6129206;23;20029;-88
2023/03/01 07:38:30;;;;;;;15.05;10.32;;;1.90;69.20;;;;;;6128791;23;20033;-88
2023/03/01 07:41:03;;;;;;;13.48;10.25;;;2.50;67.70;;;;;;6129265;23;19998;-88
2023/03/01 07:43:29;;;;;;;16.20;9.80;;;3.60;65.40;;;;;;6131092;23;20006;-88
2023/03/01 07:45:59;;;;;;;15.38;11.68;;;5.00;62.10;;;;;;6131149;23;20001;-89
2023/03/01 07:48:25;;;;;;;15.77;9.60;;;6.40;57.50;;;;;;6130794;23;20002;-89
2023/03/01 07:50:50;;;;;;;12.18;9.73;;;7.70;54.20;;;;;;6131121;23;19998;-88
2023/03/01 07:53:16;;;;;;;14.20;11.07;;;8.50;51.60;;;;;;6130903;23;20060;-89
2023/03/01 07:55:41;;;;;;;13.55;10.15;;;9.20;49.40;;;;;;6131342;23;20026;-89
2023/03/01 07:58:07;;;;;;;16.25;12.05;;;9.60;46.30;;;;;;6105262;23;20522;-90
2023/03/01 08:00:32;;;;;;;21.90;13.38;;;9.80;46.40;;;;;;6130625;23;20010;-89
2023/03/01 08:03:02;;;;;;;19.38;13.85;;;9.80;46.10;;;;;;6105036;23;20039;-91
2023/03/01 08:05:28;;;;;;;23.13;14.60;;;9.60;46.20;;;;;;6104967;23;20454;-90
2023/03/01 08:07:54;;;;;;;24.83;15.05;;;9.50;46.50;;;;;;6130156;23;20006;-88
2023/03/01 08:10:20;;;;;;;15.95;12.10;;;9.60;46.10;;;;;;6129502;23;20081;-84
2023/03/01 08:12:46;;;;;;;16.40;12.43;;;9.20;47.10;;;;;;6129848;23;20009;-79
2023/03/01 08:15:11;;;;;;;21.27;10.85;;;9.00;47.70;;;;;;6129287;23;20013;-78
2023/03/01 08:17:37;;;;;;;20.92;14.30;;;9.10;47.70;;;;;;6130266;23;20002;-78
2023/03/01 08:20:05;;;;;;;17.77;11.70;;;9.10;46.60;;;;;;6129337;23;20060;-79
2023/03/01 08:22:31;;;;;;;19.13;13.68;;;9.30;46.30;;;;;;6130842;23;20061;-79
2023/03/01 08:24:57;;;;;;;15.90;11.60;;;9.40;46.90;;;;;;6130054;23;20442;-78
2023/03/01 08:27:22;;;;;;;21.20;13.00;;;9.20;46.50;;;;;;6104317;23;20010;-78
2023/03/01 08:29:48;;;;;;;16.08;12.75;;;9.10;46.50;;;;;;6130207;23;20060;-79
2023/03/01 08:32:14;;;;;;;14.00;11.70;;;9.40;45.90;;;;;;6130215;23;20089;-78
2023/03/01 08:34:39;;;;;;;18.70;11.35;;;9.60;45.70;;;;;;6103550;23;20002;-81
2023/03/01 08:37:05;;;;;;;17.98;13.07;;;9.60;45.20;;;;;;6129715;23;20002;-79
2023/03/01 08:39:31;;;;;;;19.58;12.02;;;9.40;46.40;;;;;;6129887;23;20032;-84
2023/03/01 08:41:56;;;;;;;23.67;14.35;;;9.50;46.30;;;;;;6129384;23;20017;-78
2023/03/01 08:44:22;;;;;;;19.63;13.48;;;10.00;45.80;;;;;;6128806;23;20026;-79
2023/03/01 08:46:49;;;;;;;23.73;15.55;;;10.00;44.80;;;;;;6101698;23;20064;-79
2023/03/01 08:49:19;;;;;;;18.25;12.98;;;10.40;44.50;;;;;;6102559;23;20006;-79
2023/03/01 08:51:46;;;;;;;16.58;11.70;;;10.60;43.70;;;;;;6101869;23;20009;-79
2023/03/01 08:54:18;;;;;;;19.80;12.30;;;11.00;43.40;;;;;;6101063;23;20030;-79
2023/03/01 08:56:44;;;;;;;20.10;15.52;;;11.70;42.60;;;;;;6128722;23;20465;-79
2023/03/01 08:59:12;;;;;;;18.95;14.05;;;11.80;41.60;;;;;;6128664;23;20089;-79
2023/03/01 09:01:38;;;;;;;14.30;10.57;;;11.70;41.60;;;;;;6128162;23;20088;-80
2023/03/01 09:04:04;;;;;;;14.80;12.27;;;11.70;41.00;;;;;;6101950;23;20017;-79
2023/03/01 09:06:33;;;;;;;14.98;10.98;;;11.80;41.60;;;;;;6128783;23;20122;-79
2023/03/01 09:08:59;;;;;;;14.93;10.70;;;12.00;41.00;;;;;;6128352;23;20076;-80
2023/03/01 09:11:25;;;;;;;16.35;11.40;;;12.30;40.20;;;;;;6129322;23;20009;-79
2023/03/01 09:13:50;;;;;;;15.68;12.27;;;12.40;39.80;;;;;;6129628;23;20026;-79
2023/03/01 09:16:19;;;;;;;15.65;11.75;;;12.00;40.10;;;;;;6128946;23;20006;-79
2023/03/01 09:18:48;;;;;;;14.23;11.50;;;11.80;40.40;;;;;;6129299;23;20009;-79
2023/03/01 09:21:16;;;;;;;14.90;10.80;;;11.50;41.20;;;;;;6129392;23;20002;-79
2023/03/01 09:23:44;;;;;;;16.80;12.40;;;11.30;41.70;;;;;;6129057;23;20435;-80
2023/03/01 09:26:13;;;;;;;12.52;10.25;;;11.30;40.40;;;;;;6129205;23;20105;-79
2023/03/01 09:28:40;;;;;;;16.90;11.38;;;11.80;41.20;;;;;;6103132;23;20064;-79
2023/03/01 09:31:06;;;;;;;12.20;10.55;;;12.30;40.10;;;;;;6109644;23;20049;-80
2023/03/01 09:33:32;;;;;;;19.42;15.15;;;12.70;38.30;;;;;;6128958;23;20045;-79
2023/03/01 09:36:00;;;;;;;14.45;11.93;;;13.20;38.80;;;;;;6129080;23;20002;-79
2023/03/01 09:38:26;;;;;;;11.70;10.30;;;13.70;38.00;;;;;;6129454;23;20092;-80
2023/03/01 09:40:52;;;;;;;13.13;10.55;;;14.30;37.60;;;;;;6128850;23;20002;-80
2023/03/01 09:43:30;;;;;;;13.80;10.90;;;14.80;37.00;;;;;;6127596;23;20454;-80
2023/03/01 09:45:59;;;;;;;12.48;10.10;;;15.20;35.90;;;;;;6127360;23;20014;-80
2023/03/01 09:48:29;;;;;;;11.68;9.63;;;14.90;34.50;;;;;;6128657;23;20006;-80
2023/03/01 09:50:56;;;;;;;;;;;14.60;35.40;;;;;;6127968;23;20410;-80
2023/03/01 09:53:25;;;;;;;13.80;10.50;;;14.70;35.70;;;;;;6129194;23;19911;-80
2023/03/01 09:56:18;;;;;;;;;;;14.70;34.90;;;;;;6129318;23;20002;-80
2023/03/01 09:59:07;;;;;;;11.60;10.40;;;14.50;34.70;;;;;;6127602;23;19900;-80
2023/03/01 10:01:57;;;;;;;11.73;9.33;;;14.50;33.80;;;;;;6128975;23;20002;-80
2023/03/01 10:04:46;;;;;;;13.05;10.45;;;14.20;34.90;;;;;;6128916;23;20006;-80
2023/03/01 10:07:30;;;;;;;12.45;10.50;;;13.80;35.40;;;;;;6127048;23;20407;-80
2023/03/01 10:09:57;;;;;;;18.80;10.63;;;13.20;35.10;;;;;;6126639;23;20029;-80
2023/03/01 10:12:32;;;;;;;15.18;11.32;;;12.80;36.80;;;;;;6128921;23;20002;-79
2023/03/01 10:15:12;;;;;;;14.35;9.82;;;12.40;37.30;;;;;;6128892;23;20017;-80
2023/03/01 10:17:47;;;;;;;15.95;11.18;;;12.20;37.50;;;;;;6128509;23;20006;-80
2023/03/01 10:20:17;;;;;;;14.63;9.52;;;11.80;38.90;;;;;;6128913;23;20044;-80
2023/03/01 10:22:46;;;;;;;13.10;9.73;;;11.50;39.80;;;;;;6128880;23;20013;-80
2023/03/01 10:25:15;;;;;;;15.30;10.07;;;11.10;40.40;;;;;;6128417;23;20065;-80
2023/03/01 10:27:59;;;;;;;14.88;10.65;;;10.70;41.40;;;;;;6128509;23;20517;-80
2023/03/01 10:30:39;;;;;;;15.98;10.55;;;10.30;42.30;;;;;;6127778;23;20085;-80
2023/03/01 10:33:16;;;;;;;19.23;12.63;;;9.70;43.50;;;;;;6102660;23;20010;-79
2023/03/01 10:35:42;;;;;;;20.83;11.50;;;9.30;44.70;;;;;;6102880;23;20081;-80
2023/03/01 10:38:10;;;;;;;19.23;9.73;;;9.10;45.60;;;;;;6128581;23;20045;-80
2023/03/01 10:40:57;;;;;;;13.95;10.35;;;8.80;46.60;;;;;;6102756;23;20017;-79
2023/03/01 10:43:25;;;;;;;13.20;9.45;;;8.50;47.40;;;;;;6128481;23;20013;-80
2023/03/01 10:45:51;;;;;;;17.77;9.50;;;8.40;47.50;;;;;;6128391;23;20001;-80
2023/03/01 10:48:23;;;;;;;20.42;10.95;;;8.40;48.60;;;;;;6102669;23;20363;-80
2023/03/01 10:51:03;;;;;;;18.23;10.77;;;8.30;47.40;;;;;;6102752;23;20002;-80
2023/03/01 10:53:31;;;;;;;21.83;11.63;;;8.30;47.20;;;;;;6128162;23;20033;-80
2023/03/01 10:56:05;;;;;;;18.95;11.27;;;8.20;48.00;;;;;;6102729;23;20008;-80
2023/03/01 10:58:33;;;;;;;14.73;9.00;;;8.00;48.70;;;;;;6102443;23;20033;-80
2023/03/01 11:01:04;;;;;;;19.88;10.98;;;8.00;49.20;;;;;;6128573;23;20346;-80
2023/03/01 11:03:35;;;;;;;17.27;10.80;;;8.10;49.20;;;;;;6128963;23;20338;-79
2023/03/01 11:06:10;;;;;;;18.38;12.48;;;8.00;47.60;;;;;;6128141;23;20033;-80
2023/03/01 11:08:45;;;;;;;15.80;9.25;;;7.90;47.60;;;;;;6128015;23;20005;-80
2023/03/01 11:11:26;;;;;;;17.42;11.27;;;7.90;48.90;;;;;;6127865;23;20347;-80
2023/03/01 11:14:12;;;;;;;17.55;11.27;;;7.90;49.10;;;;;;6102252;23;20528;-80
2023/03/01 11:16:40;;;;;;;22.00;11.63;;;7.90;48.50;;;;;;6101362;23;20510;-79
2023/03/01 11:19:08;;;;;;;19.95;11.52;;;7.80;48.60;;;;;;6130656;23;20339;-81
2023/03/01 11:21:39;;;;;;;19.38;11.65;;;7.80;49.90;;;;;;6130578;23;20010;-81
2023/03/01 11:24:11;;;;;;;13.77;9.57;;;7.80;50.10;;;;;;6103992;23;20006;-81
2023/03/01 11:26:44;;;;;;;17.48;10.88;;;7.80;49.60;;;;;;6130416;23;20010;-81
2023/03/01 11:29:38;;;;;;;19.60;10.90;;;7.90;49.00;;;;;;6103540;23;20005;-81
2023/03/01 11:32:08;;;;;;;17.92;11.20;;;8.00;48.60;;;;;;6124189;23;20014;-81
2023/03/01 11:35:08;;;;;;;16.88;11.55;;;8.10;49.40;;;;;;6130349;23;20009;-81
2023/03/01 11:37:51;;;;;;;18.38;10.55;;;8.00;48.30;;;;;;6130516;23;20009;-81
2023/03/01 11:40:25;;;;;;;17.85;10.55;;;8.00;48.30;;;;;;6130487;23;20479;-81
2023/03/01 11:43:15;;;;;;;14.05;9.65;;;8.00;48.10;;;;;;6130575;23;20060;-81
2023/03/01 11:46:02;;;;;;;12.15;9.02;;;8.00;47.30;;;;;;6130121;23;20409;-81
2023/03/01 11:48:58;;;;;;;20.20;12.63;;;8.10;49.20;;;;;;6104629;23;20832;-81
2023/03/01 11:51:45;;;;;;;17.55;10.77;;;7.90;47.60;;;;;;6104366;23;20034;-81
2023/03/01 11:54:17;;;;;;;16.40;9.50;;;7.80;48.10;;;;;;6130191;23;20014;-80
2023/03/01 11:57:18;;;;;;;16.52;11.05;;;7.90;48.10;;;;;;6130256;23;20061;-80
2023/03/01 12:00:12;;;;;;;17.67;9.93;;;8.00;48.60;;;;;;6072094;23;20324;-81
2023/03/01 12:02:48;;;;;;;15.23;10.00;;;8.10;48.00;;;;;;6130047;23;20006;-80
2023/03/01 12:05:23;;;;;;;13.98;9.13;;;8.20;47.30;;;;;;6104034;23;20155;-81
2023/03/01 12:08:28;;;;;;;19.67;10.48;;;8.20;47.90;;;;;;6104473;23;20489;-80
2023/03/01 12:11:04;;;;;;;20.13;13.30;;;8.20;47.40;;;;;;6130178;23;20002;-81
2023/03/01 12:13:48;;;;;;;16.38;11.00;;;8.20;47.30;;;;;;6129704;23;20053;-80
2023/03/01 12:16:44;;;;;;;19.25;10.82;;;8.20;48.00;;;;;;6103870;23;20014;-80
2023/03/01 12:19:29;;;;;;;17.90;11.55;;;8.20;47.50;;;;;;6103745;23;20122;-81
2023/03/01 12:22:20;;;;;;;15.55;9.68;;;8.20;47.70;;;;;;6129433;23;20022;-80
2023/03/01 12:25:17;;;;;;;15.77;10.38;;;8.30;48.30;;;;;;6104078;23;20006;-80
2023/03/01 12:28:10;;;;;;;14.90;9.30;;;8.20;47.80;;;;;;6103362;23;20046;-81
2023/03/01 12:30:56;;;;;;;17.35;10.02;;;8.30;48.10;;;;;;6129681;23;20347;-81
2023/03/01 12:33:27;;;;;;;10.88;7.38;;;8.40;47.80;;;;;;6103810;23;20010;-81
2023/03/01 12:36:11;;;;;;;;;;;8.40;47.00;;;;;;6130623;23;20018;-81
2023/03/01 12:38:58;;;;;;;15.13;9.85;;;8.50;47.00;;;;;;6129459;23;19904;-81
2023/03/01 12:41:46;;;;;;;14.45;9.27;;;8.60;45.90;;;;;;6129847;23;20104;-81
2023/03/01 12:44:29;;;;;;;19.10;10.10;;;8.60;46.30;;;;;;6129783;23;20009;-81
2023/03/01 12:47:21;;;;;;;14.90;8.88;;;8.60;46.20;;;;;;6103851;23;20009;-81
2023/03/01 12:49:57;;;;;;;14.00;8.63;;;8.60;46.90;;;;;;6129800;23;20109;-81
2023/03/01 12:52:36;;;;;;;15.95;8.88;;;8.70;46.70;;;;;;6129372;23;20006;-81
2023/03/01 12:55:23;;;;;;;13.50;9.40;;;8.70;46.30;;;;;;6080223;23;20070;-81
2023/03/01 12:58:18;;;;;;;10.18;6.70;;;8.60;44.90;;;;;;6129544;23;19998;-81
2023/03/01 13:01:14;;;;;;;12.10;8.00;;;8.50;44.60;;;;;;6104403;23;20010;-81
2023/03/01 13:03:59;;;;;;;12.40;7.53;;;8.50;45.50;;;;;;6129037;23;20422;-82
2023/03/01 13:06:37;;;;;;;10.52;6.70;;;8.60;46.10;;;;;;6129492;23;19998;-82
2023/03/01 13:09:08;;;;;;;10.13;7.63;;;8.60;47.10;;;;;;6103049;23;20041;-82
2023/03/01 13:11:34;;;;;;;11.77;8.18;;;8.70;46.20;;;;;;6129507;23;19994;-82
2023/03/01 13:14:36;;;;;;;10.77;6.72;;;8.70;45.90;;;;;;6129265;23;20002;-82
2023/03/01 13:17:01;;;;;;;14.18;8.32;;;8.70;45.30;;;;;;6129508;23;20006;-81
2023/03/01 13:19:29;;;;;;;10.20;6.57;;;8.70;44.90;;;;;;6129561;23;20005;-82
2023/03/01 13:21:56;;;;;;;13.35;7.15;;;8.70;45.80;;;;;;6129574;23;20340;-81
2023/03/01 13:24:38;;;;;;;10.30;6.95;;;8.80;45.20;;;;;;6129550;23;20061;-82
2023/03/01 13:27:06;;;;;;;10.07;7.13;;;8.80;45.60;;;;;;6103702;23;20006;-81
2023/03/01 13:29:44;;;;;;;11.52;6.97;;;8.80;45.40;;;;;;6129237;23;20013;-82
2023/03/01 13:32:23;;;;;;;12.02;6.78;;;8.90;44.80;;;;;;6123034;23;20026;-82
2023/03/01 13:34:53;;;;;;;12.80;8.50;;;8.90;44.70;;;;;;6127866;23;20010;-81
2023/03/01 13:37:35;;;;;;;11.38;6.53;;;8.90;45.00;;;;;;6129321;23;20113;-81
2023/03/01 13:40:05;;;;;;;11.75;7.25;;;8.90;44.40;;;;;;6127086;23;20328;-82
2023/03/01 13:42:41;;;;;;;9.73;6.85;;;8.90;44.10;;;;;;6129864;23;20002;-81
2023/03/01 13:45:25;;;;;;;12.18;6.90;;;9.00;45.10;;;;;;6128906;23;20101;-81
2023/03/01 13:47:58;;;;;;;11.80;7.05;;;9.00;45.40;;;;;;6126720;23;20053;-81
2023/03/01 13:50:38;;;;;;;9.45;6.03;;;9.00;45.90;;;;;;6126960;23;20352;-82
2023/03/01 13:53:06;;;;;;;7.68;4.88;;;9.00;45.50;;;;;;6126739;23;20002;-81
2023/03/01 13:55:42;;;;;;;9.63;6.60;;;9.00;45.60;;;;;;6127352;23;20069;-81
2023/03/01 13:58:44;;;;;;;10.13;6.10;;;9.10;45.80;;;;;;6126424;23;20006;-80
2023/03/01 14:01:31;;;;;;;9.93;5.72;;;9.20;45.50;;;;;;6126542;23;20006;-82
2023/03/01 14:03:57;;;;;;;13.10;5.57;;;9.20;44.90;;;;;;6120913;23;20009;-81
2023/03/01 14:06:30;;;;;;;11.40;5.57;;;9.30;44.80;;;;;;6127380;23;20010;-81
2023/03/01 14:09:28;;;;;;;8.82;5.65;;;9.40;44.60;;;;;;6129016;23;20037;-81
2023/03/01 14:12:18;;;;;;;9.48;6.10;;;9.30;43.70;;;;;;6104519;23;20006;-82
2023/03/01 14:15:04;;;;;;;8.93;6.03;;;9.30;44.00;;;;;;6127917;23;20522;-81
2023/03/01 14:17:41;;;;;;;8.70;5.35;;;9.30;43.90;;;;;;6128784;23;20006;-81
2023/03/01 14:20:37;;;;;;;8.75;5.63;;;9.30;43.70;;;;;;6128844;23;20013;-81
2023/03/01 14:23:15;;;;;;;9.43;6.43;;;9.30;44.00;;;;;;6128228;23;20012;-81
2023/03/01 14:25:54;;;;;;;9.48;6.10;;;9.30;44.40;;;;;;6126818;23;20010;-81
2023/03/01 14:28:26;;;;;;;11.65;5.45;;;9.20;45.00;;;;;;6127911;23;20413;-81
2023/03/01 14:30:54;;;;;;;7.50;5.68;;;9.20;44.70;;;;;;6128737;23;20017;-81
2023/03/01 14:33:27;;;;;;;10.35;5.72;;;9.20;45.00;;;;;;6102329;23;20065;-81
2023/03/01 14:36:07;;;;;;;10.18;6.18;;;9.30;45.70;;;;;;6128985;23;20002;-81
2023/03/01 14:38:39;;;;;;;10.67;5.60;;;9.30;46.10;;;;;;6102339;23;20065;-80
2023/03/01 14:41:15;;;;;;;11.02;5.88;;;9.30;45.70;;;;;;6127656;23;20006;-81
2023/03/01 14:43:46;;;;;;;11.73;6.20;;;9.30;45.40;;;;;;6101037;23;20514;-82
2023/03/01 14:46:40;;;;;;;11.40;6.32;;;9.20;45.10;;;;;;6127570;23;20002;-80
2023/03/01 14:49:25;;;;;;;11.73;7.13;;;9.10;46.20;;;;;;6122996;23;20504;-80
2023/03/01 14:52:04;;;;;;;10.75;7.65;;;9.00;46.80;;;;;;6129105;23;19998;-79
2023/03/01 14:54:45;;;;;;;9.18;6.10;;;8.90;46.90;;;;;;6105850;23;20823;-81
2023/03/01 14:57:23;;;;;;;10.68;7.18;;;9.00;47.50;;;;;;6106717;23;20006;-80
2023/03/01 14:59:52;;;;;;;12.60;8.07;;;9.10;47.80;;;;;;6131122;23;20500;-80
2023/03/01 15:02:21;;;;;;;10.82;8.27;;;9.10;47.90;;;;;;6104402;23;20006;-80
2023/03/01 15:04:50;;;;;;;11.60;7.43;;;9.10;48.10;;;;;;6104642;23;20073;-80
2023/03/01 15:07:16;;;;;;;17.77;7.93;;;9.10;48.40;;;;;;6130160;23;20386;-80
2023/03/01 15:09:42;;;;;;;16.25;9.85;;;9.00;48.40;;;;;;6129458;23;20058;-80
2023/03/01 15:12:27;;;;;;;16.05;8.10;;;9.00;49.30;;;;;;6129670;23;20002;-81
2023/03/01 15:14:53;;;;;;;13.55;8.50;;;9.00;49.40;;;;;;6129739;23;20002;-80
2023/03/01 15:17:27;;;;;;;15.27;8.82;;;9.00;49.20;;;;;;6129803;23;20012;-80
2023/03/01 15:19:53;;;;;;;14.50;8.00;;;9.10;49.50;;;;;;6129517;23;20419;-80
2023/03/01 15:22:20;;;;;;;12.50;8.35;;;9.10;49.50;;;;;;6130348;23;20010;-81
2023/03/01 15:24:48;;;;;;;12.55;8.40;;;9.10;49.80;;;;;;6129995;23;20013;-80
2023/03/01 15:27:21;;;;;;;12.55;8.77;;;9.20;50.00;;;;;;6130869;23;20009;-80
2023/03/01 15:29:59;;;;;;;16.13;9.90;;;9.10;49.90;;;;;;6103008;23;20014;-79
2023/03/01 15:32:34;;;;;;;16.42;9.00;;;9.10;49.90;;;;;;6131267;23;20033;-80
2023/03/01 15:35:21;;;;;;;14.90;8.73;;;9.00;50.20;;;;;;6131891;23;20005;-80
2023/03/01 15:37:48;;;;;;;18.10;9.95;;;9.00;50.40;;;;;;6102744;23;20013;-79
2023/03/01 15:40:32;;;;;;;16.98;10.02;;;9.00;50.50;;;;;;6102989;23;20032;-79
2023/03/01 15:43:03;;;;;;;22.73;11.50;;;8.90;50.80;;;;;;6125192;23;20002;-77
2023/03/01 15:45:30;;;;;;;21.70;11.48;;;8.90;50.90;;;;;;6130045;23;20006;-78
2023/03/01 15:48:13;;;;;;;18.55;12.13;;;9.00;51.00;;;;;;6103417;23;20014;-78
2023/03/01 15:50:40;;;;;;;13.93;10.68;;;9.00;51.20;;;;;;6129676;23;20013;-78
2023/03/01 15:53:10;;;;;;;19.77;12.88;;;8.90;51.40;;;;;;6103997;23;20029;-78
2023/03/01 15:55:36;;;;;;;;;;;8.90;51.60;;;;;;6130090;23;19998;-78
2023/03/01 15:58:19;;;;;;;18.05;11.95;;;8.90;51.30;;;;;;6130223;23;19908;-77
2023/03/01 16:00:48;;;;;;;18.00;11.05;;;8.80;51.70;;;;;;6129966;23;20327;-77
2023/03/01 16:03:14;;;;;;;17.92;10.77;;;8.80;51.70;;;;;;6103117;23;20088;-77
2023/03/01 16:05:40;;;;;;;21.38;10.40;;;8.80;51.30;;;;;;6128553;23;20029;-77
2023/03/01 16:08:06;;;;;;;17.35;11.82;;;8.70;51.50;;;;;;6129481;23;20431;-79
2023/03/01 16:10:33;;;;;;;16.42;10.65;;;8.70;52.10;;;;;;6129301;23;20042;-78
2023/03/01 16:12:59;;;;;;;19.08;11.45;;;8.70;52.50;;;;;;6129000;23;20080;-78
2023/03/01 16:15:36;;;;;;;22.35;11.60;;;8.70;53.10;;;;;;6100166;23;20009;-78
2023/03/01 16:18:02;;;;;;;14.95;11.45;;;8.70;53.30;;;;;;6129182;23;20006;-78
2023/03/01 16:20:29;;;;;;;15.23;9.82;;;8.60;52.90;;;;;;6103467;23;20010;-78
2023/03/01 16:22:58;;;;;;;15.57;9.57;;;8.60;52.70;;;;;;6103205;23;20006;-77
2023/03/01 16:25:23;;;;;;;19.60;10.52;;;8.50;53.00;;;;;;6103584;23;20566;-78
2023/03/01 16:27:50;;;;;;;13.38;8.82;;;8.40;52.90;;;;;;6129563;23;20006;-78
2023/03/01 16:30:21;;;;;;;16.23;10.68;;;8.40;53.10;;;;;;6101883;23;20033;-78
2023/03/01 16:32:49;;;;;;;16.38;9.50;;;8.40;52.90;;;;;;6102825;23;20100;-78
2023/03/01 16:35:17;;;;;;;16.50;9.35;;;8.30;53.20;;;;;;6129204;23;20030;-78
2023/03/01 16:37:43;;;;;;;15.23;10.18;;;8.30;53.40;;;;;;6127550;23;20012;-78
2023/03/01 16:40:18;;;;;;;17.65;10.65;;;8.30;53.50;;;;;;6127048;23;20034;-78
2023/03/01 16:42:44;;;;;;;14.45;8.57;;;8.30;53.50;;;;;;6101682;23;20007;-78
2023/03/01 16:45:10;;;;;;;16.08;9.10;;;8.30;53.20;;;;;;6127858;23;20010;-78
2023/03/01 16:47:36;;;;;;;13.70;8.80;;;8.30;53.50;;;;;;6128607;23;20442;-77
2023/03/01 16:50:02;;;;;;;14.07;9.63;;;8.20;53.50;;;;;;6111751;23;20006;-78
2023/03/01 16:52:28;;;;;;;12.80;8.50;;;8.20;53.80;;;;;;6098235;23;19998;-76
2023/03/01 16:54:54;;;;;;;14.73;8.20;;;8.10;54.20;;;;;;6126780;23;20008;-78
2023/03/01 16:57:20;;;;;;;16.05;8.85;;;8.10;54.50;;;;;;6102664;23;20041;-79
2023/03/01 16:59:45;;;;;;;15.30;10.38;;;8.10;54.40;;;;;;6102454;23;20013;-77
2023/03/01 17:02:19;;;;;;;12.93;8.05;;;8.00;54.50;;;;;;6101035;23;20038;-78
2023/03/01 17:04:51;;;;;;;14.65;9.27;;;8.00;54.70;;;;;;6100890;23;20010;-80
2023/03/01 17:07:16;;;;;;;15.30;10.27;;;8.00;54.60;;;;;;6128933;23;20343;-78
2023/03/01 17:09:42;;;;;;;15.35;9.70;;;7.80;54.50;;;;;;6102554;23;20012;-78
2023/03/01 17:12:08;;;;;;;12.85;8.50;;;7.80;54.30;;;;;;6127310;23;20002;-77
2023/03/01 17:14:34;;;;;;;14.15;9.55;;;7.80;54.40;;;;;;6126060;23;19998;-76
2023/03/01 17:17:01;;;;;;;14.48;9.23;;;7.70;54.50;;;;;;6126673;23;20043;-79
2023/03/01 17:19:27;;;;;;;21.00;11.23;;;7.70;54.70;;;;;;6127044;23;20002;-77
2023/03/01 17:21:53;;;;;;;15.52;9.70;;;7.70;55.00;;;;;;6126990;23;20010;-78
2023/03/01 17:24:18;;;;;;;12.93;8.95;;;7.70;55.00;;;;;;6127558;23;20006;-78
2023/03/01 17:26:44;;;;;;;16.42;10.68;;;7.60;55.30;;;;;;6100392;23;20093;-76
2023/03/01 17:29:10;;;;;;;17.35;8.82;;;7.60;55.30;;;;;;6099245;23;20045;-78
2023/03/01 17:31:36;;;;;;;11.82;8.80;;;7.50;55.50;;;;;;6112849;23;20025;-77
2023/03/01 17:34:02;;;;;;;18.33;10.88;;;7.50;55.30;;;;;;6125775;23;20005;-80
2023/03/01 17:36:27;;;;;;;15.15;7.90;;;7.40;55.50;;;;;;6125416;23;20085;-77
2023/03/01 17:38:53;;;;;;;17.17;9.25;;;7.40;55.50;;;;;;6127889;23;20081;-77
2023/03/01 17:41:20;;;;;;;15.30;9.02;;;7.30;55.60;;;;;;6128148;23;20733;-77
2023/03/01 17:43:46;;;;;;;12.57;8.27;;;7.30;55.60;;;;;;6126987;23;20006;-78
2023/03/01 17:46:12;;;;;;;17.52;9.82;;;7.20;55.60;;;;;;6127323;23;20461;-79
2023/03/01 17:48:38;;;;;;;14.48;9.07;;;7.20;55.80;;;;;;6127195;23;20089;-76
2023/03/01 17:51:10;;;;;;;15.10;9.18;;;7.20;56.00;;;;;;6127922;23;20438;-80
2023/03/01 17:53:36;;;;;;;12.32;7.82;;;7.10;55.90;;;;;;6126047;23;20469;-83
2023/03/01 17:56:04;;;;;;;13.35;8.52;;;7.10;56.00;;;;;;6125456;23;20002;-81
2023/03/01 17:58:30;;;;;;;10.15;6.63;;;7.10;55.90;;;;;;6126425;23;20021;-79
2023/03/01 18:01:06;;;;;;;17.10;8.93;;;6.90;56.10;;;;;;6126731;23;20497;-81
2023/03/01 18:03:32;;;;;;;14.38;8.80;;;6.80;56.40;;;;;;6126078;23;20010;-81
2023/03/01 18:05:57;;;;;;;15.40;9.57;;;6.80;56.80;;;;;;6127390;23;20060;-80
2023/03/01 18:08:23;;;;;;;17.27;9.45;;;6.80;56.70;;;;;;6127814;23;20006;-79
2023/03/01 18:10:56;;;;;;;14.65;8.07;;;6.80;56.90;;;;;;6125360;23;20013;-79
2023/03/01 18:13:22;;;;;;;14.48;7.68;;;6.70;56.90;;;;;;6127416;23;20383;-79
2023/03/01 18:15:48;;;;;;;14.20;8.52;;;6.80;57.20;;;;;;6128245;23;19998;-79
2023/03/01 18:18:13;;;;;;;12.60;8.57;;;6.80;57.40;;;;;;6126569;23;20085;-79
2023/03/01 18:20:39;;;;;;;14.02;8.55;;;6.80;57.40;;;;;;6126377;23;20010;-79
2023/03/01 18:23:07;;;;;;;12.60;8.90;;;6.70;57.70;;;;;;6126623;23;20507;-79
2023/03/01 18:25:33;;;;;;;15.93;8.18;;;6.70;57.70;;;;;;6127707;23;20026;-79
2023/03/01 18:28:00;;;;;;;17.98;9.38;;;6.70;58.10;;;;;;6127525;23;20442;-79
2023/03/01 18:30:26;;;;;;;22.08;9.10;;;6.70;58.20;;;;;;6128613;23;20338;-79
2023/03/01 18:32:55;;;;;;;20.42;9.77;;;6.70;58.20;;;;;;6102881;23;20006;-79
2023/03/01 18:35:22;;;;;;;16.83;9.20;;;6.70;58.40;;;;;;6130406;23;20009;-80